createdAt,value
2024-05-09T00:00:42.882Z,1.75
2024-05-09T00:03:30.875Z,1.00
2024-05-09T00:05:58.934Z,0.00
2024-05-09T00:08:27.012Z,1.00
2024-05-09T00:10:55.073Z,1.00
2024-05-09T00:13:23.202Z,0.00
2024-05-09T00:15:51.273Z,1.00
2024-05-09T00:18:19.459Z,0.00
2024-05-09T00:20:47.594Z,0.50
2024-05-09T00:23:15.765Z,0.00
2024-05-09T00:25:44.299Z,0.00
2024-05-09T00:28:12.889Z,0.00
2024-05-09T00:30:41.235Z,0.75
2024-05-09T00:33:10.582Z,1.00
2024-05-09T00:35:39.828Z,0.00
2024-05-09T00:38:08.123Z,0.00
2024-05-09T00:40:40.825Z,1.00
2024-05-09T00:43:11.806Z,0.00
2024-05-09T00:45:40.521Z,0.00
2024-05-09T00:48:09.874Z,0.00
2024-05-09T00:50:41.198Z,0.00
2024-05-09T00:53:13.184Z,0.00
2024-05-09T00:55:41.433Z,1.00
2024-05-09T00:58:10.571Z,1.00
2024-05-09T01:00:40.541Z,0.00
2024-05-09T01:03:11.787Z,1.00
2024-05-09T01:05:42.839Z,1.00
2024-05-09T01:08:11.562Z,0.00
2024-05-09T01:10:42.838Z,1.00
2024-05-09T01:13:13.183Z,1.00
2024-05-09T01:15:41.177Z,0.00
2024-05-09T01:18:13.450Z,0.00
2024-05-09T01:20:44.599Z,1.00
2024-05-09T01:23:15.341Z,0.00
2024-05-09T01:25:45.143Z,0.00
2024-05-09T01:28:13.934Z,0.00
2024-05-09T01:30:42.035Z,0.00
2024-05-09T01:33:11.739Z,0.00
2024-05-09T01:35:42.296Z,0.00
2024-05-09T01:38:16.894Z,0.00
2024-05-09T01:40:45.256Z,0.00
2024-05-09T01:43:13.549Z,0.00
2024-05-09T01:45:41.830Z,0.00
2024-05-09T01:48:10.787Z,0.00
2024-05-09T01:50:42.139Z,0.00
2024-05-09T01:53:12.759Z,0.00
2024-05-09T01:55:41.311Z,0.00
2024-05-09T01:58:09.669Z,0.50
2024-05-09T02:00:42.029Z,0.00
2024-05-09T02:03:15.024Z,0.00
2024-05-09T02:05:46.888Z,1.00
2024-05-09T02:08:17.472Z,0.00
2024-05-09T02:10:47.157Z,0.00
2024-05-09T02:13:15.906Z,0.00
2024-05-09T02:15:44.084Z,0.00
2024-05-09T02:18:12.879Z,0.00
2024-05-09T02:20:42.271Z,0.00
2024-05-09T02:23:11.104Z,0.00
2024-05-09T02:25:39.596Z,0.00
2024-05-09T02:28:07.477Z,0.00
2024-05-09T02:30:40.013Z,0.00
2024-05-09T02:33:11.666Z,0.00
2024-05-09T02:35:42.058Z,0.00
2024-05-09T02:38:10.659Z,0.00
2024-05-09T02:40:40.077Z,0.00
2024-05-09T02:43:10.364Z,1.00
2024-05-09T02:45:40.284Z,0.00
2024-05-09T02:48:12.621Z,0.00
2024-05-09T02:50:41.857Z,0.00
2024-05-09T02:53:13.283Z,0.33
2024-05-09T02:55:41.733Z,0.00
2024-05-09T02:58:10.393Z,0.00
2024-05-09T03:00:41.421Z,0.00
2024-05-09T03:03:13.278Z,0.00
2024-05-09T03:05:44.640Z,0.00
2024-05-09T03:08:13.273Z,0.00
2024-05-09T03:10:41.515Z,0.00
2024-05-09T03:13:14.644Z,0.00
2024-05-09T03:15:44.431Z,0.00
2024-05-09T03:18:12.948Z,0.67
2024-05-09T03:20:43.460Z,0.00
2024-05-09T03:23:11.594Z,0.00
2024-05-09T03:25:39.648Z,0.00
2024-05-09T03:28:07.627Z,0.00
2024-05-09T03:30:41.069Z,0.00
2024-05-09T03:33:16.755Z,0.00
2024-05-09T03:35:45.394Z,0.00
2024-05-09T03:38:13.510Z,0.00
2024-05-09T03:40:49.042Z,1.00
2024-05-09T03:43:18.111Z,0.00
2024-05-09T03:45:47.633Z,0.00
2024-05-09T03:48:15.822Z,0.00
2024-05-09T03:50:44.164Z,0.00
2024-05-09T03:53:12.999Z,0.00
2024-05-09T03:55:41.258Z,0.00
2024-05-09T03:58:09.304Z,0.00
2024-05-09T04:00:39.519Z,0.00
2024-05-09T04:03:11.069Z,0.00
2024-05-09T04:05:42.589Z,0.00
2024-05-09T04:08:14.888Z,0.00
2024-05-09T04:10:43.179Z,0.00
2024-05-09T04:22:31.577Z,0.00
2024-05-09T04:24:59.571Z,0.00
2024-05-09T04:27:27.597Z,0.00
2024-05-09T04:29:55.484Z,0.00
2024-05-09T04:32:23.623Z,0.00
2024-05-09T04:34:51.576Z,0.00
2024-05-09T04:37:20.165Z,0.00
2024-05-09T04:39:48.154Z,0.00
2024-05-09T04:42:16.127Z,0.00
2024-05-09T04:44:44.096Z,0.00
2024-05-09T04:47:12.192Z,0.00
2024-05-09T04:49:42.137Z,0.00
2024-05-09T04:52:10.101Z,0.00
2024-05-09T04:54:37.984Z,0.00
2024-05-09T04:57:05.954Z,1.00
2024-05-09T04:59:34.279Z,0.00
2024-05-09T05:02:02.345Z,1.00
2024-05-09T05:04:30.986Z,1.00
2024-05-09T05:07:02.153Z,1.00
2024-05-09T05:09:30.787Z,0.00
2024-05-09T05:11:59.681Z,0.75
2024-05-09T05:14:27.813Z,1.00
2024-05-09T05:16:55.960Z,1.00
2024-05-09T05:19:24.022Z,0.00
2024-05-09T05:21:52.072Z,1.00
2024-05-09T05:24:20.026Z,0.67
2024-05-09T05:26:48.081Z,0.67
2024-05-09T05:29:18.482Z,0.00
2024-05-09T05:31:47.450Z,0.67
2024-05-09T05:34:15.524Z,1.00
2024-05-09T05:36:43.532Z,0.33
2024-05-09T05:39:11.918Z,1.00
2024-05-09T05:41:39.885Z,1.00
2024-05-09T05:44:10.288Z,1.00
2024-05-09T05:46:38.363Z,1.00
2024-05-09T05:49:06.549Z,1.00
2024-05-09T05:51:34.466Z,0.00
2024-05-09T05:54:02.436Z,0.00
2024-05-09T05:56:30.431Z,1.00
2024-05-09T05:58:58.522Z,0.00
2024-05-09T06:01:26.708Z,1.00
2024-05-09T06:03:54.727Z,1.33
2024-05-09T06:06:22.683Z,1.00
2024-05-09T06:08:51.059Z,1.00
2024-05-09T06:11:18.993Z,1.00
2024-05-09T06:13:47.159Z,1.00
2024-05-09T06:16:15.197Z,1.00
2024-05-09T06:18:43.189Z,1.00
2024-05-09T06:21:11.210Z,1.00
2024-05-09T06:23:48.717Z,0.00
2024-05-09T06:26:16.867Z,1.00
2024-05-09T06:28:44.912Z,0.00
2024-05-09T06:31:12.971Z,0.33
2024-05-09T06:33:41.789Z,0.67
2024-05-09T06:36:09.777Z,1.00
2024-05-09T06:38:37.876Z,1.00
2024-05-09T06:41:06.101Z,0.67
2024-05-09T06:43:35.030Z,1.00
2024-05-09T06:46:03.400Z,1.00
2024-05-09T06:48:31.522Z,1.00
2024-05-09T06:51:00.586Z,0.00
2024-05-09T06:53:28.674Z,1.00
2024-05-09T06:55:56.629Z,1.00
2024-05-09T06:58:24.519Z,0.00
2024-05-09T07:00:52.631Z,0.00
2024-05-09T07:03:20.872Z,1.00
2024-05-09T07:05:49.778Z,1.50
2024-05-09T07:08:18.222Z,1.00
2024-05-09T07:10:46.590Z,1.00
2024-05-09T07:13:15.449Z,1.00
2024-05-09T07:15:43.741Z,1.75
2024-05-09T07:18:16.925Z,1.00
2024-05-09T07:20:47.553Z,2.00
2024-05-09T07:23:16.287Z,2.00
2024-05-09T07:25:44.702Z,2.00
2024-05-09T07:28:16.756Z,3.00
2024-05-09T07:30:45.134Z,3.00
2024-05-09T07:33:21.370Z,2.00
2024-05-09T07:35:51.003Z,2.00
2024-05-09T07:38:19.165Z,2.00
2024-05-09T07:40:47.327Z,2.00
2024-05-09T07:43:15.665Z,3.00
2024-05-09T07:45:51.740Z,3.00
2024-05-09T07:52:38.317Z,3.00
2024-05-09T07:53:46.954Z,3.00
2024-05-09T07:56:18.938Z,3.00
2024-05-09T07:58:49.716Z,4.00
2024-05-09T08:01:17.916Z,3.00
2024-05-09T08:03:46.403Z,2.00
2024-05-09T08:06:14.832Z,4.00
2024-05-09T08:08:42.947Z,4.00
2024-05-09T08:11:10.872Z,3.00
2024-05-09T08:13:38.867Z,4.33
2024-05-09T08:16:07.223Z,5.00
2024-05-09T08:18:35.527Z,3.50
2024-05-09T08:21:03.909Z,2.50
2024-05-09T08:23:31.898Z,2.00
2024-05-09T08:26:00.668Z,3.00
2024-05-09T08:28:28.778Z,3.00
2024-05-09T08:30:57.083Z,4.00
2024-05-09T08:33:25.399Z,3.00
2024-05-09T08:35:55.022Z,5.00
2024-05-09T08:38:22.950Z,3.50
2024-05-09T08:40:50.947Z,4.00
2024-05-09T08:43:19.596Z,4.33
2024-05-09T08:45:49.411Z,3.00
2024-05-09T08:48:17.657Z,5.00
2024-05-09T08:50:46.072Z,4.00
2024-05-09T08:53:16.838Z,3.00
2024-05-09T08:55:48.978Z,4.33
2024-05-09T08:58:20.555Z,4.00
2024-05-09T09:00:49.447Z,4.00
2024-05-09T09:03:18.923Z,3.67
2024-05-09T09:06:06.294Z,5.00
2024-05-09T09:08:34.338Z,3.67
2024-05-09T09:11:02.257Z,3.00
2024-05-09T09:13:30.187Z,5.33
2024-05-09T09:15:59.121Z,5.00
2024-05-09T09:18:28.114Z,6.00
2024-05-09T09:20:56.371Z,6.00
2024-05-09T09:23:24.299Z,5.00
2024-05-09T09:25:52.299Z,4.00
2024-05-09T09:28:22.801Z,3.00
2024-05-09T09:30:50.950Z,6.00
2024-05-09T09:33:19.664Z,6.00
2024-05-09T09:35:47.647Z,4.00
2024-05-09T09:38:16.884Z,4.00
2024-05-09T09:40:49.517Z,4.00
2024-05-09T09:43:22.622Z,4.00
2024-05-09T09:45:53.006Z,2.00
2024-05-09T09:48:21.739Z,4.00
2024-05-09T09:50:51.398Z,3.00
2024-05-09T09:53:19.556Z,3.00
2024-05-09T09:55:47.607Z,2.00
2024-05-09T09:58:18.597Z,2.00
2024-05-09T10:00:46.831Z,1.00
2024-05-09T10:03:14.989Z,1.00
2024-05-09T10:05:46.254Z,1.00
2024-05-09T10:08:15.611Z,1.00
2024-05-09T10:10:46.152Z,1.00
2024-05-09T10:13:14.567Z,2.00
2024-05-09T10:15:55.525Z,2.00
2024-05-09T10:18:29.544Z,4.00
2024-05-09T10:20:59.947Z,5.00
2024-05-09T10:23:29.042Z,4.00
2024-05-09T10:25:57.814Z,3.00
2024-05-09T10:28:29.541Z,2.50
2024-05-09T10:31:15.862Z,4.00
2024-05-09T10:33:49.370Z,4.50
2024-05-09T10:36:22.322Z,4.00
2024-05-09T10:38:50.919Z,4.00
2024-05-09T10:41:19.602Z,4.50
2024-05-09T10:43:47.758Z,4.00
2024-05-09T10:46:16.521Z,3.00
2024-05-09T10:48:45.129Z,4.00
2024-05-09T10:51:13.317Z,4.00
2024-05-09T10:53:45.185Z,4.00
2024-05-09T10:56:13.560Z,3.67
2024-05-09T10:58:41.672Z,3.50
2024-05-09T11:01:11.031Z,3.00
2024-05-09T11:03:39.784Z,3.00
2024-05-09T11:06:09.413Z,3.00
2024-05-09T11:08:37.609Z,2.00
2024-05-09T11:11:07.421Z,3.00
2024-05-09T11:13:38.984Z,2.00
2024-05-09T11:16:16.660Z,2.00
2024-05-09T11:18:52.836Z,1.00
2024-05-09T11:21:21.006Z,1.00
2024-05-09T11:23:48.907Z,1.67
2024-05-09T11:26:19.204Z,2.00
2024-05-09T11:28:47.407Z,3.00
2024-05-09T11:31:15.426Z,2.25
2024-05-09T11:33:44.836Z,1.00
2024-05-09T11:36:12.950Z,2.00
2024-05-09T11:38:41.084Z,1.00
2024-05-09T11:41:09.147Z,2.00
2024-05-09T11:43:37.146Z,1.00
2024-05-09T11:46:05.200Z,2.00
2024-05-09T11:48:33.325Z,2.00
2024-05-09T11:51:01.301Z,3.00
2024-05-09T11:53:29.248Z,2.00
2024-05-09T11:55:57.223Z,2.00
2024-05-09T11:58:25.172Z,2.00
2024-05-09T12:00:53.298Z,1.00
2024-05-09T12:03:21.578Z,1.00
2024-05-09T12:05:49.771Z,1.67
2024-05-09T12:08:17.836Z,2.00
2024-05-09T12:10:46.481Z,2.00
2024-05-09T12:13:14.597Z,2.00
2024-05-09T12:15:42.624Z,2.00
2024-05-09T12:18:10.674Z,2.00
2024-05-09T12:20:40.051Z,1.00
2024-05-09T12:23:09.714Z,1.33
2024-05-09T12:25:39.159Z,1.00
2024-05-09T12:28:08.078Z,1.00
2024-05-09T12:30:40.694Z,1.00
2024-05-09T12:33:13.741Z,2.00
2024-05-09T12:35:44.311Z,1.25
2024-05-09T12:38:15.175Z,1.00
2024-05-09T12:40:43.774Z,1.00
2024-05-09T12:52:38.613Z,1.33
2024-05-09T12:55:06.570Z,2.00
2024-05-09T12:57:34.679Z,1.00
2024-05-09T13:00:04.051Z,2.00
2024-05-09T13:02:32.289Z,1.00
2024-05-09T13:05:00.455Z,1.00
2024-05-09T13:07:28.545Z,1.00
2024-05-09T13:09:56.595Z,1.00
2024-05-09T13:12:26.237Z,1.00
2024-05-09T13:14:54.164Z,2.00
2024-05-09T13:17:22.306Z,1.00
2024-05-09T13:19:50.314Z,1.00
2024-05-09T13:22:18.189Z,1.00
2024-05-09T13:24:46.203Z,1.00
2024-05-09T13:27:14.150Z,1.00
2024-05-09T13:29:44.207Z,0.00
2024-05-09T13:32:12.464Z,0.33
2024-05-09T13:34:40.568Z,1.00
2024-05-09T13:37:08.533Z,1.00
2024-05-09T13:39:36.776Z,1.00
2024-05-09T13:42:04.909Z,1.00
2024-05-09T13:44:33.060Z,1.00
2024-05-09T13:47:00.951Z,1.00
2024-05-09T13:49:28.951Z,1.00
2024-05-09T13:51:57.011Z,1.00
2024-05-09T13:54:24.980Z,1.00
2024-05-09T13:56:53.015Z,1.67
2024-05-09T13:59:21.016Z,1.00
2024-05-09T14:01:49.220Z,2.00
2024-05-09T14:04:17.812Z,1.00
2024-05-09T14:06:46.044Z,1.00
2024-05-09T14:09:14.161Z,1.00
2024-05-09T14:11:42.426Z,1.00
2024-05-09T14:14:10.433Z,1.00
2024-05-09T14:16:38.913Z,1.00
2024-05-09T14:19:06.980Z,1.00
2024-05-09T14:21:35.052Z,1.00
2024-05-09T14:24:02.991Z,1.00
2024-05-09T14:26:30.995Z,1.00
2024-05-09T14:28:58.989Z,1.00
2024-05-09T14:31:27.122Z,1.00
2024-05-09T14:33:55.430Z,1.00
2024-05-09T14:36:23.488Z,0.33
2024-05-09T14:38:51.469Z,1.50
2024-05-09T14:41:19.468Z,1.00
2024-05-09T14:43:47.493Z,0.00
2024-05-09T14:46:15.535Z,1.00
2024-05-09T14:48:43.570Z,1.00
2024-05-09T14:51:11.509Z,2.00
2024-05-09T14:53:39.385Z,0.50
2024-05-09T14:56:07.582Z,2.00
2024-05-09T14:58:35.440Z,1.00
2024-05-09T15:01:03.449Z,1.33
2024-05-09T15:03:31.611Z,1.25
2024-05-09T15:05:59.727Z,0.00
2024-05-09T15:08:27.767Z,0.50
2024-05-09T15:10:55.978Z,1.00
2024-05-09T15:13:24.588Z,1.00
2024-05-09T15:15:52.867Z,1.00
2024-05-09T15:18:21.155Z,1.00
2024-05-09T15:20:49.475Z,1.00
2024-05-09T15:23:17.482Z,2.00
2024-05-09T15:25:45.507Z,1.00
2024-05-09T15:28:13.537Z,1.00
2024-05-09T15:30:45.511Z,1.00
2024-05-09T15:33:14.994Z,1.00
2024-05-09T15:35:43.002Z,1.00
2024-05-09T15:38:10.949Z,0.00
2024-05-09T15:40:40.725Z,0.25
2024-05-09T15:43:10.869Z,1.00
2024-05-09T15:45:41.012Z,2.00
2024-05-09T15:48:09.998Z,1.00
2024-05-09T15:50:41.104Z,1.00
2024-05-09T15:53:12.167Z,1.00
2024-05-09T15:55:41.912Z,1.00
2024-05-09T15:58:10.282Z,1.25
2024-05-09T16:00:41.734Z,1.00
2024-05-09T16:03:12.739Z,1.00
2024-05-09T16:05:45.820Z,1.00
2024-05-09T16:08:14.802Z,1.00
2024-05-09T16:10:45.761Z,0.00
2024-05-09T16:13:15.387Z,1.00
2024-05-09T16:15:43.752Z,1.00
2024-05-09T16:18:12.275Z,1.00
2024-05-09T16:20:42.350Z,1.00
2024-05-09T16:23:12.511Z,2.00
2024-05-09T16:25:45.050Z,1.00
2024-05-09T16:28:13.090Z,1.00
2024-05-09T16:30:41.573Z,1.00
2024-05-09T16:33:11.653Z,1.00
2024-05-09T16:35:40.191Z,1.00
2024-05-09T16:38:08.286Z,0.00
2024-05-09T16:40:39.942Z,2.00
2024-05-09T16:43:10.675Z,1.00
2024-05-09T16:45:40.257Z,1.00
2024-05-09T16:48:08.958Z,1.00
2024-05-09T16:50:37.424Z,1.75
2024-05-09T16:53:06.518Z,1.00
2024-05-09T16:55:35.746Z,2.00
2024-05-09T16:58:04.997Z,1.00
2024-05-09T17:00:40.652Z,1.00
2024-05-09T17:03:15.758Z,0.00
2024-05-09T17:05:48.393Z,1.00
2024-05-09T17:08:17.698Z,1.00
2024-05-09T17:10:46.443Z,1.00
2024-05-09T17:13:14.812Z,2.00
2024-05-09T17:15:42.795Z,1.00
2024-05-09T17:18:11.003Z,1.00
2024-05-09T17:20:39.143Z,2.00
2024-05-09T17:23:12.369Z,1.00
2024-05-09T17:25:40.791Z,2.00
2024-05-09T17:28:09.090Z,1.00
2024-05-09T17:30:39.067Z,0.00
2024-05-09T17:33:10.052Z,1.00
2024-05-09T17:35:39.029Z,1.00
2024-05-09T17:38:07.237Z,2.00
2024-05-09T17:40:37.407Z,2.00
2024-05-09T17:43:08.984Z,0.67
2024-05-09T17:45:40.077Z,2.00
2024-05-09T17:48:09.533Z,2.00
2024-05-09T17:50:38.459Z,2.00
2024-05-09T17:53:06.867Z,1.00
2024-05-09T17:55:35.491Z,1.00
2024-05-09T17:58:04.724Z,1.75
2024-05-09T18:00:38.939Z,0.75
2024-05-09T18:03:13.845Z,1.00
2024-05-09T18:05:44.763Z,1.00
2024-05-09T18:08:13.859Z,1.50
2024-05-09T18:10:42.484Z,1.00
2024-05-09T18:13:11.756Z,1.00
2024-05-09T18:15:40.464Z,0.67
2024-05-09T18:18:09.107Z,1.00
2024-05-09T18:20:43.631Z,2.00
2024-05-09T18:23:16.056Z,1.00
2024-05-09T18:25:46.190Z,2.00
2024-05-09T18:28:14.733Z,2.00
2024-05-09T18:30:42.947Z,0.75
2024-05-09T18:33:11.718Z,1.00
2024-05-09T18:35:43.807Z,2.00
2024-05-09T18:38:12.017Z,2.00
2024-05-09T18:40:42.024Z,1.75
2024-05-09T18:43:11.898Z,0.00
2024-05-09T18:45:40.321Z,0.00
2024-05-09T18:48:09.658Z,2.00
2024-05-09T18:50:40.331Z,2.00
2024-05-09T18:53:10.840Z,1.00
2024-05-09T18:55:39.816Z,0.00
2024-05-09T18:58:08.036Z,2.00
2024-05-09T19:00:39.062Z,1.00
2024-05-09T19:03:12.305Z,1.00
2024-05-09T19:05:43.728Z,2.00
2024-05-09T19:08:14.238Z,2.00
2024-05-09T19:10:42.392Z,1.00
2024-05-09T19:13:12.993Z,1.50
2024-05-09T19:15:43.243Z,2.00
2024-05-09T19:18:13.044Z,1.00
2024-05-09T19:20:42.047Z,2.00
2024-05-09T19:23:11.239Z,2.00
2024-05-09T19:25:39.228Z,2.50
2024-05-09T19:28:07.204Z,1.75
2024-05-09T19:30:40.268Z,1.00
2024-05-09T19:33:12.706Z,2.00
2024-05-09T19:35:42.619Z,1.00
2024-05-09T19:38:11.523Z,2.00
2024-05-09T19:40:39.581Z,2.00
2024-05-09T19:43:07.805Z,1.00
2024-05-09T19:45:36.587Z,1.00
2024-05-09T19:48:06.299Z,2.00
2024-05-09T19:50:41.776Z,2.00
2024-05-09T19:53:13.566Z,1.50
2024-05-09T19:55:41.870Z,1.00
2024-05-09T19:58:10.362Z,2.00
2024-05-09T20:00:41.061Z,1.00
2024-05-09T20:03:12.285Z,1.00
2024-05-09T20:05:42.555Z,1.75
2024-05-09T20:08:10.937Z,1.67
2024-05-09T20:10:39.086Z,1.50
2024-05-09T20:13:08.199Z,2.00
2024-05-09T20:15:37.544Z,1.75
2024-05-09T20:18:06.473Z,2.00
2024-05-09T20:20:39.373Z,1.67
2024-05-09T20:23:11.257Z,1.00
2024-05-09T20:25:39.994Z,1.75
2024-05-09T20:28:08.148Z,1.00
2024-05-09T20:30:36.737Z,1.00
2024-05-09T20:33:09.459Z,2.00
2024-05-09T20:35:38.265Z,1.00
2024-05-09T20:38:06.222Z,1.00
2024-05-09T20:40:37.694Z,1.00
2024-05-09T20:43:08.570Z,1.00
2024-05-09T20:45:36.912Z,1.00
2024-05-09T20:48:06.095Z,1.00
2024-05-09T20:50:39.313Z,1.00
2024-05-09T20:53:11.010Z,1.00
2024-05-09T20:55:39.768Z,1.00
2024-05-09T20:58:08.445Z,2.00
2024-05-09T21:00:40.541Z,1.00
2024-05-09T21:03:12.812Z,1.00
2024-05-09T21:05:42.044Z,2.00
2024-05-09T21:08:10.127Z,1.00
2024-05-09T21:10:38.372Z,1.75
2024-05-09T21:13:07.294Z,1.00
2024-05-09T21:15:36.203Z,1.00
2024-05-09T21:18:05.003Z,1.50
2024-05-09T21:20:34.370Z,1.00
2024-05-09T21:23:03.274Z,1.00
2024-05-09T21:25:31.613Z,1.25
2024-05-09T21:28:00.227Z,2.00
2024-05-09T21:30:38.254Z,1.25
2024-05-09T21:33:12.801Z,1.00
2024-05-09T21:35:43.119Z,2.00
2024-05-09T21:38:13.114Z,1.00
2024-05-09T21:40:41.431Z,1.00
2024-05-09T21:43:09.498Z,2.00
2024-05-09T21:45:37.862Z,1.00
2024-05-09T21:48:06.943Z,1.00
2024-05-09T21:50:40.366Z,0.00
2024-05-09T21:53:11.549Z,1.00
2024-05-09T21:55:39.962Z,1.00
2024-05-09T21:58:08.282Z,0.50
2024-05-09T22:00:39.167Z,1.00
2024-05-09T22:03:08.758Z,1.00
2024-05-09T22:05:38.856Z,1.00
2024-05-09T22:08:07.574Z,1.00
2024-05-09T22:10:36.819Z,1.50
2024-05-09T22:13:06.556Z,1.00
2024-05-09T22:15:36.432Z,1.00
2024-05-09T22:18:05.641Z,1.00
2024-05-09T22:20:38.973Z,1.00
2024-05-09T22:23:08.608Z,1.00
2024-05-09T22:25:38.227Z,2.00
2024-05-09T22:28:06.541Z,1.00
2024-05-09T22:30:38.238Z,2.00
2024-05-09T22:33:09.415Z,2.00
2024-05-09T22:35:39.200Z,2.00
2024-05-09T22:38:07.134Z,2.00
2024-05-09T22:43:06.234Z,1.00
2024-05-09T22:45:34.564Z,1.00
2024-05-09T22:48:02.639Z,2.00
2024-05-09T22:50:33.099Z,1.00
2024-05-09T22:53:01.802Z,1.00
2024-05-09T22:55:30.126Z,2.00
2024-05-09T22:57:58.118Z,1.00
2024-05-09T23:00:31.231Z,1.00
2024-05-09T23:03:01.360Z,0.33
2024-05-09T23:05:31.818Z,1.00
2024-05-09T23:08:03.536Z,2.00
2024-05-09T23:10:36.107Z,1.00
2024-05-09T23:13:07.594Z,1.00
2024-05-09T23:15:36.904Z,0.00
2024-05-09T23:18:05.478Z,1.00
2024-05-09T23:20:38.130Z,1.00
2024-05-09T23:23:08.373Z,1.00
2024-05-09T23:25:36.718Z,1.00
2024-05-09T23:28:05.297Z,1.00
2024-05-09T23:30:38.232Z,1.00
2024-05-09T23:33:12.642Z,1.00
2024-05-09T23:35:41.667Z,1.00
2024-05-09T23:38:09.650Z,2.00
2024-05-09T23:40:40.353Z,1.00
2024-05-09T23:43:10.490Z,2.00
2024-05-09T23:45:39.078Z,0.00
2024-05-09T23:48:07.855Z,1.00
2024-05-09T23:50:38.336Z,1.00
2024-05-09T23:53:09.347Z,1.00
2024-05-09T23:55:38.474Z,1.00
2024-05-09T23:58:07.405Z,1.00
